createdAt,value
2023-01-09T00:00:59.998Z,83.68
2023-01-09T00:03:27.038Z,83.18
2023-01-09T00:05:54.075Z,83.16
2023-01-09T00:08:21.134Z,83.13
2023-01-09T00:10:49.196Z,84.54
2023-01-09T00:13:18.372Z,83.11
2023-01-09T00:15:45.409Z,83.43
2023-01-09T00:18:12.343Z,83.64
2023-01-09T00:20:39.154Z,83.37
2023-01-09T00:23:06.013Z,84.10
2023-01-09T00:25:32.899Z,85.24
2023-01-09T00:27:59.908Z,85.27
2023-01-09T00:30:27.592Z,85.28
2023-01-09T00:32:55.958Z,85.58
2023-01-09T00:35:25.319Z,85.79
2023-01-09T00:37:52.403Z,85.49
2023-01-09T00:40:20.297Z,84.66
2023-01-09T00:42:51.634Z,85.26
2023-01-09T00:45:29.075Z,85.62
2023-01-09T00:48:03.489Z,84.91
2023-01-09T00:50:32.317Z,84.57
2023-01-09T00:53:03.846Z,83.86
2023-01-09T00:55:31.045Z,83.98
2023-01-09T00:57:58.283Z,84.72
2023-01-09T01:00:25.527Z,85.10
2023-01-09T01:02:52.731Z,85.14
2023-01-09T01:05:38.263Z,85.41
2023-01-09T01:08:12.255Z,84.54
2023-01-09T01:10:39.921Z,83.21
2023-01-09T01:13:07.610Z,83.32
2023-01-09T01:15:35.264Z,83.92
2023-01-09T01:18:02.234Z,83.33
2023-01-09T01:20:29.343Z,83.98
2023-01-09T01:22:56.556Z,84.70
2023-01-09T01:25:24.071Z,85.19
2023-01-09T01:27:51.627Z,86.04
2023-01-09T01:30:20.016Z,86.60
2023-01-09T01:32:47.210Z,87.02
2023-01-09T01:35:14.645Z,86.08
2023-01-09T01:37:41.720Z,86.57
2023-01-09T01:40:10.309Z,87.19
2023-01-09T01:42:37.600Z,87.68
2023-01-09T01:45:11.232Z,87.65
2023-01-09T01:48:00.123Z,88.33
2023-01-09T01:50:37.505Z,88.30
2023-01-09T01:53:25.640Z,87.91
2023-01-09T01:56:15.089Z,88.46
2023-01-09T01:58:52.768Z,88.67
2023-01-09T02:01:22.835Z,88.86
2023-01-09T02:03:51.569Z,89.95
2023-01-09T02:06:18.766Z,89.70
2023-01-09T02:08:46.094Z,89.94
2023-01-09T02:11:14.723Z,89.81
2023-01-09T02:13:42.894Z,90.92
2023-01-09T02:16:15.717Z,91.10
2023-01-09T02:19:30.795Z,91.16
2023-01-09T02:22:20.520Z,91.66
2023-01-09T02:25:05.160Z,92.18
2023-01-09T02:28:01.310Z,92.92
2023-01-09T02:30:43.916Z,93.97
2023-01-09T02:33:23.071Z,94.41
2023-01-09T02:36:02.355Z,94.32
2023-01-09T02:38:41.556Z,94.39
2023-01-09T02:41:08.304Z,95.28
2023-01-09T02:43:35.136Z,94.96
2023-01-09T02:46:02.172Z,94.73
2023-01-09T02:48:30.244Z,94.70
2023-01-09T02:51:06.499Z,94.52
2023-01-09T02:53:36.182Z,94.76
2023-01-09T02:56:29.269Z,94.26
2023-01-09T02:59:02.083Z,94.44
2023-01-09T03:01:37.023Z,94.23
2023-01-09T03:04:14.483Z,94.48
2023-01-09T03:07:00.814Z,95.65
2023-01-09T03:09:29.566Z,94.65
2023-01-09T03:12:01.393Z,95.23
2023-01-09T03:14:30.638Z,94.46
2023-01-09T03:16:59.872Z,94.54
2023-01-09T03:19:30.204Z,94.31
2023-01-09T03:21:57.362Z,94.23
2023-01-09T03:24:24.226Z,93.91
2023-01-09T03:26:51.387Z,94.34
2023-01-09T03:29:18.233Z,94.41
2023-01-09T03:31:45.073Z,94.37
2023-01-09T03:34:12.166Z,93.89
2023-01-09T03:36:39.236Z,93.83
2023-01-09T03:39:06.273Z,93.73
2023-01-09T03:41:33.278Z,93.60
2023-01-09T03:44:00.086Z,93.26
2023-01-09T03:46:27.060Z,93.16
2023-01-09T03:48:53.985Z,92.42
2023-01-09T03:51:20.817Z,93.00
2023-01-09T03:53:47.985Z,93.26
2023-01-09T03:56:15.420Z,93.04
2023-01-09T03:58:42.321Z,92.52
2023-01-09T04:01:12.835Z,93.28
2023-01-09T04:03:40.316Z,96.15
2023-01-09T04:06:07.379Z,99.01
2023-01-09T04:08:34.382Z,100.00
2023-01-09T04:11:01.149Z,100.00
2023-01-09T04:13:28.032Z,100.00
2023-01-09T04:15:54.923Z,100.00
2023-01-09T04:18:21.746Z,100.00
2023-01-09T04:20:48.750Z,100.00
2023-01-09T04:23:15.525Z,100.00
2023-01-09T04:25:42.357Z,100.00
2023-01-09T04:28:09.207Z,100.00
2023-01-09T04:30:36.168Z,100.00
2023-01-09T04:33:03.061Z,100.00
2023-01-09T04:35:29.776Z,100.00
2023-01-09T04:37:56.430Z,100.00
2023-01-09T04:40:23.087Z,100.00
2023-01-09T04:42:49.791Z,100.00
2023-01-09T04:45:17.295Z,100.00
2023-01-09T04:47:44.454Z,100.00
2023-01-09T04:50:11.868Z,100.00
2023-01-09T04:52:39.180Z,100.00
2023-01-09T04:55:06.404Z,100.00
2023-01-09T04:57:33.330Z,100.00
2023-01-09T04:59:59.971Z,100.00
2023-01-09T05:02:26.623Z,100.00
2023-01-09T05:04:53.227Z,100.00
2023-01-09T05:07:19.862Z,100.00
2023-01-09T05:09:46.529Z,100.00
2023-01-09T05:12:13.237Z,100.00
2023-01-09T05:14:39.823Z,100.00
2023-01-09T05:17:06.437Z,100.00
2023-01-09T05:19:33.162Z,100.00
2023-01-09T05:21:59.803Z,100.00
2023-01-09T05:24:26.448Z,100.00
2023-01-09T05:26:53.254Z,100.00
2023-01-09T05:29:19.893Z,100.00
2023-01-09T05:31:46.608Z,100.00
2023-01-09T05:34:13.293Z,100.00
2023-01-09T05:36:40.126Z,100.00
2023-01-09T05:39:07.414Z,100.00
2023-01-09T05:41:34.149Z,100.00
2023-01-09T05:44:00.983Z,100.00
2023-01-09T05:46:27.640Z,100.00
2023-01-09T05:48:54.243Z,100.00
2023-01-09T05:51:20.911Z,100.00
2023-01-09T05:53:47.560Z,100.00
2023-01-09T05:56:14.539Z,100.00
2023-01-09T05:58:41.429Z,100.00
2023-01-09T06:01:08.346Z,100.00
2023-01-09T06:03:35.210Z,100.00
2023-01-09T06:06:01.827Z,100.00
2023-01-09T06:08:28.458Z,100.00
2023-01-09T06:10:55.048Z,100.00
2023-01-09T06:13:21.668Z,100.00
2023-01-09T06:15:48.772Z,100.00
2023-01-09T06:18:15.839Z,100.00
2023-01-09T06:20:44.028Z,100.00
2023-01-09T06:23:12.789Z,100.00
2023-01-09T06:25:40.048Z,100.00
2023-01-09T06:28:07.353Z,100.00
2023-01-09T06:30:34.376Z,100.00
2023-01-09T06:33:00.987Z,100.00
2023-01-09T06:35:27.719Z,100.00
2023-01-09T06:37:54.352Z,100.00
2023-01-09T06:40:21.389Z,100.00
2023-01-09T06:42:48.730Z,100.00
2023-01-09T06:45:15.860Z,100.00
2023-01-09T06:47:42.709Z,100.00
2023-01-09T06:50:09.662Z,100.00
2023-01-09T06:52:37.067Z,100.00
2023-01-09T06:55:04.037Z,100.00
2023-01-09T06:57:30.720Z,100.00
2023-01-09T06:59:58.042Z,100.00
2023-01-09T07:02:24.843Z,100.00
2023-01-09T07:04:51.576Z,100.00
2023-01-09T07:07:19.856Z,100.00
2023-01-09T07:09:46.614Z,100.00
2023-01-09T07:12:13.236Z,100.00
2023-01-09T07:14:39.897Z,100.00
2023-01-09T07:17:06.610Z,100.00
2023-01-09T07:19:33.195Z,100.00
2023-01-09T07:21:59.838Z,100.00
2023-01-09T07:24:26.517Z,100.00
2023-01-09T07:26:53.111Z,100.00
2023-01-09T07:29:19.791Z,100.00
2023-01-09T07:31:47.145Z,100.00
2023-01-09T07:34:14.122Z,100.00
2023-01-09T07:36:40.972Z,100.00
2023-01-09T07:39:09.225Z,100.00
2023-01-09T07:41:35.816Z,100.00
2023-01-09T07:44:02.454Z,100.00
2023-01-09T07:46:29.166Z,100.00
2023-01-09T07:48:56.253Z,100.00
2023-01-09T07:51:22.905Z,100.00
2023-01-09T07:53:49.555Z,100.00
2023-01-09T07:56:16.328Z,100.00
2023-01-09T07:58:44.197Z,100.00
2023-01-09T08:01:10.913Z,100.00
2023-01-09T08:03:38.467Z,100.00
2023-01-09T08:06:05.139Z,100.00
2023-01-09T08:08:31.733Z,100.00
2023-01-09T08:10:58.508Z,100.00
2023-01-09T08:13:25.134Z,100.00
2023-01-09T08:15:51.812Z,100.00
2023-01-09T08:18:18.533Z,100.00
2023-01-09T08:20:45.168Z,100.00
2023-01-09T08:23:11.798Z,100.00
2023-01-09T08:25:38.391Z,100.00
2023-01-09T08:28:05.128Z,100.00
2023-01-09T08:30:31.810Z,100.00
2023-01-09T08:32:58.418Z,100.00
2023-01-09T08:35:25.033Z,100.00
2023-01-09T08:37:51.624Z,100.00
2023-01-09T08:40:18.718Z,100.00
2023-01-09T08:43:04.378Z,100.00
2023-01-09T08:45:50.165Z,100.00
2023-01-09T08:48:17.157Z,100.00
2023-01-09T08:50:44.289Z,100.00
2023-01-09T08:53:11.357Z,100.00
2023-01-09T08:55:37.994Z,100.00
2023-01-09T08:58:04.681Z,100.00
2023-01-09T09:00:31.307Z,100.00
2023-01-09T09:02:59.189Z,100.00
2023-01-09T09:05:27.180Z,100.00
2023-01-09T09:07:55.843Z,100.00
2023-01-09T09:10:23.802Z,100.00
2023-01-09T09:12:51.233Z,100.00
2023-01-09T09:15:24.135Z,100.00
2023-01-09T09:17:58.279Z,100.00
2023-01-09T09:20:26.316Z,100.00
2023-01-09T09:22:53.026Z,100.00
2023-01-09T09:25:20.305Z,100.00
2023-01-09T09:27:47.318Z,100.00
2023-01-09T09:30:15.036Z,100.00
2023-01-09T09:32:41.949Z,100.00
2023-01-09T09:35:09.004Z,100.00
2023-01-09T09:37:36.220Z,100.00
2023-01-09T09:40:09.973Z,100.00
2023-01-09T09:43:21.590Z,100.00
2023-01-09T09:45:54.229Z,100.00
2023-01-09T09:48:40.673Z,100.00
2023-01-09T09:51:24.237Z,100.00
2023-01-09T09:53:57.025Z,100.00
2023-01-09T09:56:23.890Z,100.00
2023-01-09T09:58:53.544Z,100.00
2023-01-09T10:01:23.492Z,100.00
2023-01-09T10:03:55.884Z,100.00
2023-01-09T10:06:25.666Z,100.00
2023-01-09T10:08:57.286Z,100.00
2023-01-09T10:11:27.761Z,100.00
2023-01-09T10:14:16.074Z,100.00
2023-01-09T10:17:03.980Z,100.00
2023-01-09T10:19:37.492Z,100.00
2023-01-09T10:22:25.175Z,100.00
2023-01-09T10:25:01.261Z,100.00
2023-01-09T10:27:31.470Z,100.00
2023-01-09T10:30:01.120Z,100.00
2023-01-09T10:32:33.964Z,100.00
2023-01-09T10:35:21.953Z,100.00
2023-01-09T10:37:53.405Z,100.00
2023-01-09T10:40:20.184Z,100.00
2023-01-09T10:42:55.389Z,100.00
2023-01-09T10:45:28.130Z,100.00
2023-01-09T10:48:01.079Z,100.00
2023-01-09T10:50:31.555Z,100.00
2023-01-09T10:52:58.715Z,100.00
2023-01-09T10:55:48.029Z,100.00
2023-01-09T10:58:16.998Z,100.00
2023-01-09T11:00:43.850Z,100.00
2023-01-09T11:03:14.509Z,100.00
2023-01-09T11:05:41.956Z,100.00
2023-01-09T11:08:08.733Z,100.00
2023-01-09T11:10:49.603Z,100.00
2023-01-09T11:13:27.097Z,100.00
2023-01-09T11:16:01.310Z,100.00
2023-01-09T11:18:28.044Z,100.00
2023-01-09T11:20:54.666Z,100.00
2023-01-09T11:23:25.888Z,100.00
2023-01-09T11:25:54.080Z,100.00
2023-01-09T11:28:21.005Z,100.00
2023-01-09T11:31:07.897Z,100.00
2023-01-09T11:33:36.467Z,100.00
2023-01-09T11:36:06.176Z,100.00
2023-01-09T11:38:44.700Z,100.00
2023-01-09T11:41:17.350Z,100.00
2023-01-09T11:43:45.501Z,100.00
2023-01-09T11:46:29.812Z,100.00
2023-01-09T11:48:57.935Z,100.00
2023-01-09T11:51:28.963Z,100.00
2023-01-09T11:53:58.453Z,100.00
2023-01-09T11:56:25.261Z,100.00
2023-01-09T11:58:52.177Z,100.00
2023-01-09T12:01:45.040Z,100.00
2023-01-09T12:04:11.602Z,100.00
2023-01-09T12:06:44.244Z,100.00
2023-01-09T12:09:34.182Z,100.00
2023-01-09T12:12:24.096Z,100.00
2023-01-09T12:15:00.656Z,100.00
2023-01-09T12:17:45.617Z,100.00
2023-01-09T12:20:27.609Z,100.00
2023-01-09T12:23:09.590Z,100.00
2023-01-09T12:25:44.508Z,100.00
2023-01-09T12:28:17.177Z,100.00
2023-01-09T12:30:43.840Z,100.00
2023-01-09T12:33:13.570Z,100.00
2023-01-09T12:35:46.568Z,100.00
2023-01-09T12:38:33.545Z,100.00
2023-01-09T12:41:22.036Z,100.00
2023-01-09T12:44:00.336Z,100.00
2023-01-09T12:46:31.882Z,100.00
2023-01-09T12:48:58.585Z,100.00
2023-01-09T12:51:51.456Z,100.00
2023-01-09T12:54:24.395Z,100.00
2023-01-09T12:57:14.078Z,100.00
2023-01-09T12:59:47.470Z,100.00
2023-01-09T13:02:17.262Z,100.00
2023-01-09T13:04:54.917Z,100.00
2023-01-09T13:07:24.530Z,100.00
2023-01-09T13:09:54.554Z,100.00
2023-01-09T13:12:23.538Z,100.00
2023-01-09T13:15:22.822Z,100.00
2023-01-09T13:17:52.220Z,100.00
2023-01-09T13:20:39.568Z,100.00
2023-01-09T13:23:07.268Z,100.00
2023-01-09T13:25:44.831Z,100.00
2023-01-09T13:28:26.201Z,100.00
2023-01-09T13:30:57.413Z,100.00
2023-01-09T13:33:34.073Z,100.00
2023-01-09T13:36:03.562Z,100.00
2023-01-09T13:38:31.699Z,100.00
2023-01-09T13:41:27.064Z,100.00
2023-01-09T13:43:55.377Z,100.00
2023-01-09T13:46:22.204Z,100.00
2023-01-09T13:48:48.931Z,100.00
2023-01-09T13:51:48.136Z,100.00
2023-01-09T13:54:34.819Z,100.00
2023-01-09T13:57:17.173Z,100.00
2023-01-09T13:59:45.025Z,100.00
2023-01-09T14:02:30.320Z,100.00
2023-01-09T14:04:56.955Z,100.00
2023-01-09T14:07:24.397Z,100.00
2023-01-09T14:09:57.169Z,100.00
2023-01-09T14:12:23.939Z,100.00
2023-01-09T14:14:51.653Z,100.00
2023-01-09T14:17:23.546Z,100.00
2023-01-09T14:19:54.217Z,100.00
2023-01-09T14:22:25.918Z,100.00
2023-01-09T14:24:53.538Z,100.00
2023-01-09T14:27:39.172Z,100.00
2023-01-09T14:30:24.540Z,100.00
2023-01-09T14:32:57.799Z,100.00
2023-01-09T14:35:28.171Z,100.00
2023-01-09T14:38:24.260Z,100.00
2023-01-09T14:40:54.677Z,100.00
2023-01-09T14:43:30.969Z,100.00
2023-01-09T14:46:02.858Z,100.00
2023-01-09T14:48:29.896Z,100.00
2023-01-09T14:50:59.142Z,100.00
2023-01-09T14:53:29.803Z,100.00
2023-01-09T14:55:58.256Z,100.00
2023-01-09T14:58:24.921Z,100.00
2023-01-09T15:01:10.303Z,100.00
2023-01-09T15:03:42.360Z,100.00
2023-01-09T15:06:35.324Z,100.00
2023-01-09T15:09:13.385Z,100.00
2023-01-09T15:11:40.434Z,100.00
2023-01-09T15:14:09.028Z,100.00
2023-01-09T15:16:35.785Z,100.00
2023-01-09T15:19:03.860Z,100.00
2023-01-09T15:21:31.841Z,100.00
2023-01-09T15:24:18.661Z,100.00
2023-01-09T15:26:51.671Z,100.00
2023-01-09T15:29:18.304Z,100.00
2023-01-09T15:31:47.179Z,100.00
2023-01-09T15:34:20.250Z,100.00
2023-01-09T15:36:49.565Z,100.00
2023-01-09T15:39:22.793Z,100.00
2023-01-09T15:42:07.944Z,100.00
2023-01-09T15:44:38.148Z,100.00
2023-01-09T15:47:06.556Z,100.00
2023-01-09T15:49:34.066Z,100.00
2023-01-09T15:52:01.638Z,100.00
2023-01-09T15:54:33.082Z,100.00
2023-01-09T15:57:18.228Z,100.00
2023-01-09T15:59:44.797Z,100.00
2023-01-09T16:02:32.839Z,100.00
2023-01-09T16:04:59.451Z,100.00
2023-01-09T16:07:26.072Z,100.00
2023-01-09T16:09:52.958Z,100.00
2023-01-09T16:12:25.266Z,100.00
2023-01-09T16:14:54.245Z,100.00
2023-01-09T16:17:24.023Z,100.00
2023-01-09T16:19:55.076Z,100.00
2023-01-09T16:22:21.825Z,100.00
2023-01-09T16:24:48.899Z,100.00
2023-01-09T16:27:22.868Z,100.00
2023-01-09T16:29:50.728Z,100.00
2023-01-09T16:32:19.056Z,100.00
2023-01-09T16:34:48.563Z,100.00
2023-01-09T16:37:15.250Z,100.00
2023-01-09T16:39:42.982Z,100.00
2023-01-09T16:42:28.094Z,100.00
2023-01-09T16:44:54.703Z,100.00
2023-01-09T16:47:21.299Z,100.00
2023-01-09T16:49:47.988Z,100.00
2023-01-09T16:52:17.840Z,100.00
2023-01-09T16:54:46.948Z,100.00
2023-01-09T16:57:16.308Z,100.00
2023-01-09T16:59:43.722Z,100.00
2023-01-09T17:02:28.304Z,100.00
2023-01-09T17:04:56.179Z,100.00
2023-01-09T17:07:25.678Z,100.00
2023-01-09T17:09:53.458Z,100.00
2023-01-09T17:12:28.115Z,100.00
2023-01-09T17:14:54.778Z,100.00
2023-01-09T17:17:21.767Z,100.00
2023-01-09T17:19:48.737Z,100.00
2023-01-09T17:22:15.508Z,100.00
2023-01-09T17:25:06.931Z,100.00
2023-01-09T17:27:54.704Z,100.00
2023-01-09T17:30:21.543Z,100.00
2023-01-09T17:32:48.360Z,100.00
2023-01-09T17:35:16.122Z,100.00
2023-01-09T17:37:43.146Z,100.00
2023-01-09T17:40:20.352Z,100.00
2023-01-09T17:42:46.958Z,100.00
2023-01-09T17:45:13.833Z,100.00
2023-01-09T17:47:40.783Z,100.00
2023-01-09T17:50:07.984Z,100.00
2023-01-09T17:52:34.622Z,100.00
2023-01-09T17:55:05.351Z,100.00
2023-01-09T17:57:32.696Z,100.00
2023-01-09T17:59:59.381Z,100.00
2023-01-09T18:02:26.375Z,100.00
2023-01-09T18:04:53.070Z,100.00
2023-01-09T18:07:20.819Z,100.00
2023-01-09T18:09:47.547Z,100.00
2023-01-09T18:12:14.448Z,100.00
2023-01-09T18:14:42.247Z,100.00
2023-01-09T18:17:11.979Z,100.00
2023-01-09T18:19:38.964Z,100.00
2023-01-09T18:22:05.701Z,100.00
2023-01-09T18:24:32.470Z,100.00
2023-01-09T18:27:02.143Z,100.00
2023-01-09T18:29:29.207Z,100.00
2023-01-09T18:31:56.091Z,100.00
2023-01-09T18:34:23.100Z,100.00
2023-01-09T18:36:49.968Z,100.00
2023-01-09T18:39:16.770Z,100.00
2023-01-09T18:41:43.810Z,100.00
2023-01-09T18:44:10.720Z,100.00
2023-01-09T18:46:40.773Z,100.00
2023-01-09T18:49:07.719Z,100.00
2023-01-09T18:51:35.605Z,100.00
2023-01-09T18:54:02.618Z,100.00
2023-01-09T18:56:29.300Z,100.00
2023-01-09T18:59:00.003Z,100.00
2023-01-09T19:01:27.918Z,100.00
2023-01-09T19:03:55.548Z,100.00
2023-01-09T19:06:22.568Z,100.00
2023-01-09T19:08:49.747Z,100.00
2023-01-09T19:11:16.462Z,100.00
2023-01-09T19:13:43.750Z,100.00
2023-01-09T19:16:11.622Z,100.00
2023-01-09T19:18:40.493Z,100.00
2023-01-09T19:21:17.706Z,100.00
2023-01-09T19:23:45.059Z,100.00
2023-01-09T19:26:23.963Z,100.00
2023-01-09T19:28:52.405Z,100.00
2023-01-09T19:31:19.637Z,100.00
2023-01-09T19:33:46.807Z,100.00
2023-01-09T19:36:14.305Z,100.00
2023-01-09T19:38:41.386Z,100.00
2023-01-09T19:41:09.749Z,100.00
2023-01-09T19:43:36.790Z,100.00
2023-01-09T19:46:07.127Z,100.00
2023-01-09T19:48:35.575Z,100.00
2023-01-09T19:51:03.511Z,100.00
2023-01-09T19:53:30.601Z,100.00
2023-01-09T19:56:07.791Z,100.00
2023-01-09T19:58:35.062Z,100.00
2023-01-09T20:01:09.237Z,100.00
2023-01-09T20:03:37.289Z,100.00
2023-01-09T20:06:05.288Z,100.00
2023-01-09T20:08:34.282Z,100.00
2023-01-09T20:11:06.784Z,100.00
2023-01-09T20:13:34.187Z,100.00
2023-01-09T20:16:02.613Z,100.00
2023-01-09T20:18:30.657Z,100.00
2023-01-09T20:20:57.544Z,100.00
2023-01-09T20:23:27.591Z,100.00
2023-01-09T20:25:55.247Z,100.00
2023-01-09T20:28:22.175Z,100.00
2023-01-09T20:30:54.684Z,100.00
2023-01-09T20:33:21.750Z,100.00
2023-01-09T20:35:48.782Z,100.00
2023-01-09T20:38:15.845Z,100.00
2023-01-09T20:40:44.327Z,100.00
2023-01-09T20:43:13.260Z,100.00
2023-01-09T20:45:40.336Z,100.00
2023-01-09T20:48:07.460Z,100.00
2023-01-09T20:50:34.196Z,100.00
2023-01-09T20:53:00.931Z,100.00
2023-01-09T20:55:27.636Z,100.00
2023-01-09T20:57:54.307Z,100.00
2023-01-09T21:00:21.090Z,100.00
2023-01-09T21:02:47.907Z,100.00
2023-01-09T21:05:14.793Z,100.00
2023-01-09T21:07:41.411Z,100.00
2023-01-09T21:10:08.290Z,100.00
2023-01-09T21:12:35.032Z,100.00
2023-01-09T21:15:04.092Z,100.00
2023-01-09T21:17:34.769Z,100.00
2023-01-09T21:20:01.446Z,100.00
2023-01-09T21:22:28.162Z,100.00
2023-01-09T21:24:54.743Z,100.00
2023-01-09T21:27:21.392Z,100.00
2023-01-09T21:29:48.088Z,100.00
2023-01-09T21:32:14.685Z,100.00
2023-01-09T21:34:41.300Z,100.00
2023-01-09T21:37:08.642Z,100.00
2023-01-09T21:39:36.488Z,100.00
2023-01-09T21:42:21.683Z,100.00
2023-01-09T21:45:06.850Z,100.00
2023-01-09T21:47:33.499Z,100.00
2023-01-09T21:50:00.137Z,100.00
2023-01-09T21:52:26.799Z,100.00
2023-01-09T21:54:53.439Z,100.00
2023-01-09T21:57:20.080Z,100.00
2023-01-09T21:59:46.653Z,100.00
2023-01-09T22:02:14.489Z,100.00
2023-01-09T22:04:42.989Z,100.00
2023-01-09T22:07:13.268Z,100.00
2023-01-09T22:09:39.907Z,100.00
2023-01-09T22:12:06.768Z,100.00
2023-01-09T22:14:33.375Z,100.00
2023-01-09T22:17:00.032Z,100.00
2023-01-09T22:19:28.205Z,100.00
2023-01-09T22:21:54.974Z,100.00
2023-01-09T22:24:21.898Z,100.00
2023-01-09T22:26:48.514Z,100.00
2023-01-09T22:29:16.367Z,100.00
2023-01-09T22:31:43.248Z,100.00
2023-01-09T22:34:13.027Z,100.00
2023-01-09T22:36:39.678Z,100.00
2023-01-09T22:39:06.326Z,100.00
2023-01-09T22:41:32.935Z,100.00
2023-01-09T22:43:59.519Z,100.00
2023-01-09T22:46:26.158Z,100.00
2023-01-09T22:48:52.827Z,100.00
2023-01-09T22:51:20.989Z,100.00
2023-01-09T22:53:47.683Z,100.00
2023-01-09T22:56:15.704Z,100.00
2023-01-09T22:58:42.377Z,100.00
2023-01-09T23:01:12.451Z,100.00
2023-01-09T23:03:39.838Z,100.00
2023-01-09T23:06:07.817Z,100.00
2023-01-09T23:08:35.023Z,100.00
2023-01-09T23:11:01.815Z,100.00
2023-01-09T23:13:28.473Z,100.00
2023-01-09T23:15:55.281Z,100.00
2023-01-09T23:18:21.971Z,100.00
2023-01-09T23:20:52.807Z,100.00
2023-01-09T23:23:21.145Z,100.00
2023-01-09T23:25:54.618Z,100.00
2023-01-09T23:28:22.476Z,100.00
2023-01-09T23:30:49.768Z,100.00
2023-01-09T23:33:17.330Z,100.00
2023-01-09T23:35:44.806Z,100.00
2023-01-09T23:38:11.950Z,100.00
2023-01-09T23:40:41.678Z,100.00
2023-01-09T23:43:12.493Z,100.00
2023-01-09T23:45:41.897Z,100.00
2023-01-09T23:48:11.470Z,100.00
2023-01-09T23:50:38.788Z,100.00
2023-01-09T23:53:05.574Z,100.00
2023-01-09T23:55:32.465Z,100.00
2023-01-09T23:57:59.248Z,100.00
